Flight Track Log - Related Links

Times and Time Zones

All times are in EDT time to prevent confusion due to time zone crossing. See the SWA558 flight status page for this flight to view local times or setup timezone preferences in your user account.


Time Position Orientation Groundspeed Altitude Reporting Facility
EDT Latitude Longitude Course Direction KTS MPH feet Rate Location/Type
Mon 01:02:39 PM 26.6239 -81.7153 347° North 232 267 3,600  Level Miami Center
Mon 01:03:39 PM 26.6928 -81.7206 356° North 257 296 7,100 3,550 Climbing Miami Center
Mon 01:04:39 PM 26.7717 -81.7283 355° North 268 308 10,700 2,900 Climbing Miami Center
Mon 01:05:39 PM 26.8656 -81.7322 358° North 299 344 12,900 2,550 Climbing Miami Center
Mon 01:06:39 PM 26.9675 -81.7411 356° North 337 388 15,800 3,100 Climbing Miami Center
Mon 01:07:00 PM 27.1885 -81.7971 347° North  Level FlightAware Approximate
Mon 01:07:39 PM 27.0714 -81.7597 351° North 370 426 19,100  Level Miami Center
Mon 01:08:39 PM 27.1744 -81.7942 343° North 376 433 21,500 2,300 Climbing Miami Center
Mon 01:09:39 PM 27.2839 -81.8317 343° North 394 453 23,700 2,150 Climbing Miami Center
Mon 01:10:39 PM 27.3850 -81.8642 344° North 414 476 25,800 2,000 Climbing Miami Center
Mon 01:11:39 PM 27.4983 -81.9064 342° North 421 484 27,700 1,850 Climbing Miami Center
Mon 01:12:39 PM 27.6281 -81.9519 343° North 430 495 29,500 1,150 Climbing Miami Center
Mon 01:13:39 PM 27.7497 -81.9950 343° North 442 509 30,000 250 Climbing Miami Center
Mon 01:14:39 PM 27.8703 -82.0122 353° North 442 509 30,000 91 Level Miami Center
Mon 01:16:56 PM 28.1392 -82.1111 342° North 434 499 30,300 609 Climbing Jacksonville Center
Mon 01:17:56 PM 28.2461 -82.1786 331° Northwest 434 499 32,000 850 Climbing Jacksonville Center
Mon 01:18:56 PM 28.3508 -82.2464 330° Northwest 434 499 32,000  Level Jacksonville Center
Mon 01:19:56 PM 28.4594 -82.3142 331° Northwest 439 505 32,000  Level Jacksonville Center
Mon 01:20:56 PM 28.5642 -82.3819 330° Northwest 439 505 32,000 450 Level Jacksonville Center
Mon 01:21:56 PM 28.6708 -82.4500 331° Northwest 439 505 32,900 1,150 Climbing Jacksonville Center
Mon 01:22:56 PM 28.7756 -82.5136 332° Northwest 439 505 34,300 1,500 Climbing Jacksonville Center
Mon 01:23:56 PM 28.8819 -82.5844 330° Northwest 439 505 35,900 850 Climbing Jacksonville Center
Mon 01:24:56 PM 28.9867 -82.6553 329° Northwest 439 505 36,000 450 Climbing Jacksonville Center
Mon 01:25:56 PM 29.0931 -82.7214 332° Northwest 439 505 36,800 900 Climbing Jacksonville Center
Mon 01:26:56 PM 29.1975 -82.7903 330° Northwest 434 499 37,800 600 Climbing Jacksonville Center
Mon 01:27:56 PM 29.3019 -82.8592 330° Northwest 434 499 38,000 100 Climbing Jacksonville Center
Mon 01:28:56 PM 29.4083 -82.9258 331° Northwest 434 499 38,000  Level Jacksonville Center
Mon 01:29:56 PM 29.5067 -82.9903 330° Northwest 441 507 38,000  Level Jacksonville Center
Mon 01:30:56 PM 29.6131 -83.0575 331° Northwest 441 507 38,000  Level Jacksonville Center
Mon 01:31:56 PM 29.7297 -83.1128 338° Northwest 441 507 38,000  Level Jacksonville Center
Mon 01:32:56 PM 29.8403 -83.1631 338° Northwest 442 509 38,000  Level Jacksonville Center
Mon 01:33:56 PM 29.9572 -83.2161 339° North 442 509 38,000  Level Jacksonville Center
Mon 01:34:56 PM 30.0739 -83.2694 338° Northwest 437 503 38,000  Level Jacksonville Center
Mon 01:35:56 PM 30.1886 -83.3228 338° Northwest 437 503 38,000  Level Jacksonville Center
Mon 01:36:56 PM 30.3031 -83.3786 337° Northwest 437 503 38,000  Level Jacksonville Center
Mon 01:37:56 PM 30.4178 -83.4297 339° North 437 503 38,000  Level Jacksonville Center
Mon 01:38:56 PM 30.5283 -83.4811 338° Northwest 437 503 38,000  Level Jacksonville Center
Mon 01:39:56 PM 30.6408 -83.5347 338° Northwest 437 503 38,000  Level Jacksonville Center
Mon 01:40:56 PM 30.7511 -83.5886 337° Northwest 429 494 38,000  Level Jacksonville Center
Mon 01:41:56 PM 30.8656 -83.6406 339° North 429 494 38,000  Level Jacksonville Center
Mon 01:42:56 PM 30.9758 -83.6969 336° Northwest 434 499 38,000  Level Jacksonville Center
Mon 01:43:56 PM 31.0864 -83.7514 337° Northwest 428 493 38,000  Level Jacksonville Center
Mon 01:45:29 PM 31.2728 -83.8422 337° Northwest 452 520 38,000  Level Atlanta Center
Mon 01:46:29 PM 31.3875 -83.8978 338° Northwest 452 520 38,000  Level Atlanta Center
Mon 01:47:29 PM 31.5044 -83.9536 338° Northwest 452 520 38,000  Level Atlanta Center
Mon 01:48:29 PM 31.6297 -83.9878 347° North 452 520 38,000  Level Atlanta Center
Mon 01:49:29 PM 31.7550 -84.0119 351° North 452 520 38,000  Level Atlanta Center
Mon 01:51:29 PM 31.9950 -84.0633 350° North 458 527 38,000  Level Atlanta Center
Mon 01:52:29 PM 32.1222 -84.0928 349° North 458 527 38,000  Level Atlanta Center
Mon 01:53:29 PM 32.2475 -84.1222 349° North 458 527 38,000  Level Atlanta Center
Mon 01:54:29 PM 32.3747 -84.1494 350° North 458 527 38,000  Level Atlanta Center
Mon 01:55:29 PM 32.5000 -84.1792 349° North 458 527 38,000  Level Atlanta Center
Mon 01:56:29 PM 32.6272 -84.2067 350° North 458 527 38,000  Level Atlanta Center
Mon 01:57:29 PM 32.7567 -84.2364 349° North 458 527 38,000  Level Atlanta Center
Mon 01:58:29 PM 32.8819 -84.2664 349° North 458 527 38,000  Level Atlanta Center
Mon 01:59:29 PM 33.0069 -84.2939 350° North 464 534 38,000  Level Atlanta Center
Mon 02:00:29 PM 33.1386 -84.3267 348° North 471 542 38,000  Level Atlanta Center
Mon 02:01:29 PM 33.2617 -84.3544 349° North 464 534 38,000  Level Atlanta Center
Mon 02:02:29 PM 33.4033 -84.3847 350° North 470 541 38,000  Level Atlanta Center
Mon 02:03:29 PM 33.5328 -84.4150 349° North 463 533 38,000  Level Atlanta Center
Mon 02:04:29 PM 33.6433 -84.4431 348° North 464 534 38,000  Level Atlanta Center
Mon 02:05:29 PM 33.7747 -84.4736 349° North 467 537 38,000  Level Atlanta Center
Mon 02:06:29 PM 33.9019 -84.5042 349° North 465 535 38,000  Level Atlanta Center
Mon 02:07:29 PM 34.0333 -84.5375 348° North 472 543 38,000  Level Atlanta Center
Mon 02:08:29 PM 34.1667 -84.5661 350° North 478 550 38,000  Level Atlanta Center
Mon 02:09:29 PM 34.2961 -84.5969 349° North 481 554 38,000  Level Atlanta Center
Mon 02:10:29 PM 34.4272 -84.6306 348° North 481 554 38,000  Level Atlanta Center
Mon 02:11:29 PM 34.5692 -84.6644 349° North 481 554 38,000  Level Atlanta Center
Mon 02:12:29 PM 34.6817 -84.6931 348° North 474 545 38,000  Level Atlanta Center
Mon 02:13:29 PM 34.8108 -84.7244 349° North 468 539 38,000  Level Atlanta Center
Mon 02:14:29 PM 34.9400 -84.7583 348° North 468 539 38,000  Level Atlanta Center
Mon 02:15:29 PM 35.0714 -84.7900 349° North 468 539 38,000  Level Atlanta Center
Mon 02:16:29 PM 35.2006 -84.8242 348° North 468 539 38,000  Level Atlanta Center
Mon 02:17:29 PM 35.3275 -84.8558 348° North 468 539 38,000  Level Atlanta Center
Mon 02:18:29 PM 35.4544 -84.8878 348° North 468 539 38,000  Level Atlanta Center
Mon 02:19:29 PM 35.5817 -84.9197 348° North 468 539 38,000  Level Atlanta Center
Mon 02:20:29 PM 35.7128 -84.9544 348° North 468 539 38,000  Level Atlanta Center
Mon 02:21:29 PM 35.8397 -84.9839 349° North 468 539 38,000  Level Atlanta Center
Mon 02:23:42 PM 36.1358 -85.0594 348° North 470 541 38,000  Level Indianapolis Center
Mon 02:24:44 PM 36.2636 -85.0925 348° North 469 540 38,000  Level Indianapolis Center
Mon 02:25:46 PM 36.3922 -85.1253 348° North 471 542 38,000  Level Indianapolis Center
Mon 02:26:48 PM 36.5211 -85.1589 348° North 472 543 38,000  Level Indianapolis Center
Mon 02:27:50 PM 36.6494 -85.1922 348° North 470 541 38,000  Level Indianapolis Center
Mon 02:28:52 PM 36.7772 -85.2258 348° North 469 540 38,000  Level Indianapolis Center
Mon 02:29:53 PM 36.9294 -85.2658 348° North 465 535 38,000  Level Indianapolis Center
Mon 02:30:55 PM 37.0550 -85.2969 349° North 466 536 38,000  Level Indianapolis Center
Mon 02:31:57 PM 37.1808 -85.3306 348° North 462 532 38,000  Level Indianapolis Center
Mon 02:32:59 PM 37.3072 -85.3639 348° North 462 532 38,000  Level Indianapolis Center
Mon 02:34:01 PM 37.4333 -85.3972 348° North 462 532 38,000  Level Indianapolis Center
Mon 02:35:03 PM 37.5819 -85.4328 349° North 464 534 38,000  Level Indianapolis Center
Mon 02:36:05 PM 37.7089 -85.4583 351° North 461 531 38,000 -146 Level Indianapolis Center
Mon 02:37:06 PM 37.8364 -85.4844 351° North 462 532 37,700 -585 Descending Indianapolis Center
Mon 02:38:08 PM 37.9508 -85.5067 351° North 460 529 36,800 -919 Descending Indianapolis Center
Mon 02:39:10 PM 38.0775 -85.5333 351° North 460 529 35,800 -1,016 Descending Indianapolis Center
Mon 02:40:12 PM 38.2289 -85.5639 351° North 456 525 34,700 -968 Descending Indianapolis Center
Mon 02:41:14 PM 38.3528 -85.5897 351° North 451 519 33,800 -823 Descending Indianapolis Center
Mon 02:42:16 PM 38.4742 -85.6144 351° North 444 511 33,000 -390 Descending Indianapolis Center
Mon 02:43:17 PM 38.5947 -85.6397 351° North 440 506 33,000 -98 Level Indianapolis Center
Mon 02:44:19 PM 38.7150 -85.6664 350° North 439 505 32,800 -581 Descending Indianapolis Center
Mon 02:45:21 PM 38.8353 -85.6919 351° North 439 505 31,800 -1,016 Descending Indianapolis Center
Mon 02:46:23 PM 38.9825 -85.7219 351° North 443 510 30,700 -871 Descending Indianapolis Center
Mon 02:47:25 PM 39.1050 -85.7483 351° North 445 512 30,000 -774 Descending Indianapolis Center
Mon 02:48:27 PM 39.2258 -85.7736 351° North 441 507 29,100 -532 Descending Indianapolis Center
Mon 02:49:29 PM 39.3469 -85.8003 350° North 440 506 28,900 -585 Descending Indianapolis Center
Mon 02:50:30 PM 39.4658 -85.8247 351° North 434 499 27,900 -1,024 Descending Indianapolis Center
Mon 02:51:32 PM 39.5825 -85.8514 350° North 428 493 26,800 -1,065 Descending Indianapolis Center
Mon 02:52:34 PM 39.7103 -85.8778 351° North 418 481 25,700 -1,016 Descending Indianapolis Center
Mon 02:53:36 PM 39.8261 -85.9033 350° North 417 480 24,700 -823 Descending Indianapolis Center
Mon 02:54:38 PM 39.9394 -85.9275 351° North 412 474 24,000 -341 Descending Indianapolis Center
Mon 02:55:39 PM 40.0531 -85.9678 345° North 400 460 24,000 -49 Level Indianapolis Center
Mon 02:56:41 PM 40.1600 -86.0167 341° North 401 461 23,900 -581 Descending Indianapolis Center
Mon 02:57:43 PM 40.2608 -86.0633 341° North 401 461 22,800 -919 Descending Indianapolis Center
Mon 02:58:45 PM 40.3667 -86.1133 340° North 400 460 22,000 -387 Descending Indianapolis Center
Mon 02:59:47 PM 40.4900 -86.1694 341° North 399 459 22,000 -439 Level Indianapolis Center
Mon 03:00:48 PM 40.5961 -86.2192 340° North 398 458 21,100 -1,415 Descending Indianapolis Center
Mon 03:01:50 PM 40.7006 -86.2675 341° North 396 456 19,100 -1,984 Descending Indianapolis Center
Mon 03:02:52 PM 40.8022 -86.3158 340° North 387 445 17,000 -1,645 Descending Indianapolis Center
Mon 03:03:54 PM 40.9064 -86.3642 341° North 386 444 15,700 -2,418 Descending Indianapolis Center
Mon 03:05:06 PM 41.0175 -86.4186 340° North 371 427 11,600 -2,104 Descending Chicago Center
Mon 03:06:08 PM 41.0914 -86.4992 321° Northwest 351 404 11,000 -677 Descending Chicago Center
Mon 03:07:10 PM 41.1536 -86.5958 311° West 344 396 10,200 -435 Descending Chicago Center
Mon 03:08:12 PM 41.2150 -86.6908 311° West 340 391 10,100 -98 Descending Chicago Center
Mon 03:09:13 PM 41.2850 -86.7972 311° West 341 392 10,000 -146 Descending Chicago Center
Mon 03:10:15 PM 41.3406 -86.8839 311° West 315 362 9,800 -871 Descending Chicago Center
Mon 03:11:17 PM 41.3900 -86.9617 310° West 284 327 8,200 -1,610 Descending Chicago Center
Mon 03:12:18 PM 41.4417 -87.0428 310° West 286 329 6,500 -1,073 Descending Chicago Center
Mon 03:13:20 PM 41.5014 -87.1344 311° West 280 322 6,000 -278 Descending Chicago Center
Mon 03:14:06 PM 41.5167 -87.2000 287° West 276 318 6,000  Level Chicago TRACON
Mon 03:15:06 PM 41.5167 -87.3000 270° West 279 321 6,000 -400 Level Chicago TRACON
Mon 03:16:06 PM 41.5833 -87.3833 317° Northwest 277 319 5,200 -750 Descending Chicago TRACON
Mon 03:16:26 PM 41.5922 -87.3922 323° Northwest 276 318 5,000 -1,185 Descending Chicago Center
Mon 03:17:27 PM 41.6472 -87.4622 316° Northwest 276 318 3,600 -1,024 Descending Chicago Center
Mon 03:18:29 PM 41.7111 -87.5422 317° Northwest 272 313 2,900 -774 Descending Chicago Center
Mon 03:19:31 PM 41.7539 -87.6064 312° West 255 293 2,000 -551 Descending Chicago Center
Mon 03:20:07 PM 41.7833 -87.6500 312° West 232 267 2,000 -250 Level Chicago TRACON
Mon 03:21:07 PM 41.8167 -87.7000 312° West 167 192 1,600 -400 Descending Chicago TRACON
Mon 03:23:00 PM 41.7833 -87.7500 334° Northwest  Level FlightAware Approximate

Login

Don't have an account? Register now (free) for customized features, flight alerts, and more!